Time;durP1;ratioP1;P1;durP2;ratioP2;P2;SDS_P1;SDS_P2;PMS_P1;PMS_P2;Temp;Humidity;BMP_temperature;BMP_pressure;BME280_temperature;BME280_humidity;BME280_pressure;Samples;Min_cycle;Max_cycle;Signal;HPM_P1;HPM_P2
2023/01/24 00:01:22;;;;;;;5.80;3.90;;;;;;;-0.48;90.38;96815.89;106696;1275;25250;-83
2023/01/24 00:03:50;;;;;;;7.10;4.80;;;;;;;-0.50;90.04;96813.02;106778;1269;24193;-82
2023/01/24 00:06:18;;;;;;;8.10;4.20;;;;;;;-0.48;90.28;96815.33;106519;1275;25305;-82
2023/01/24 00:08:47;;;;;;;9.40;5.00;;;;;;;-0.44;90.44;96817.95;106720;1275;25217;-82
2023/01/24 00:11:15;;;;;;;7.80;4.80;;;;;;;-0.42;90.20;96815.77;106855;1257;22516;-75
2023/01/24 00:13:43;;;;;;;8.90;4.90;;;;;;;-0.42;90.17;96818.36;106834;1275;22527;-82
2023/01/24 00:16:20;;;;;;;6.40;4.00;;;;;;;-0.41;90.26;96822.90;106790;1275;25268;-82
2023/01/24 00:18:49;;;;;;;9.10;5.10;;;;;;;-0.43;89.91;96822.83;106722;1275;23281;-82
2023/01/24 00:21:21;;;;;;;9.80;5.00;;;;;;;-0.46;89.90;96819.41;106639;1272;24267;-82
2023/01/24 00:23:52;;;;;;;10.90;6.00;;;;;;;-0.47;90.05;96824.05;106731;1275;25441;-82
2023/01/24 00:26:22;;;;;;;8.40;4.50;;;;;;;-0.50;89.70;96822.70;106879;1275;22608;-81
2023/01/24 00:28:52;;;;;;;6.60;3.80;;;;;;;-0.49;89.90;96828.45;106697;1275;22665;-82
2023/01/24 00:31:20;;;;;;;6.00;4.10;;;;;;;-0.46;89.93;96824.40;106757;1275;24583;-82
2023/01/24 00:33:48;;;;;;;7.00;4.20;;;;;;;-0.48;89.61;96825.92;106662;1275;25217;-82
2023/01/24 00:36:16;;;;;;;7.80;4.20;;;;;;;-0.55;89.07;96825.23;106742;1263;22520;-83
2023/01/24 00:38:44;;;;;;;9.50;5.30;;;;;;;-0.56;89.55;96827.63;106645;1275;22533;-83
2023/01/24 00:41:13;;;;;;;9.00;4.90;;;;;;;-0.54;89.68;96824.59;106852;1275;22653;-82
2023/01/24 00:43:41;;;;;;;8.00;5.20;;;;;;;-0.60;89.36;96828.30;106794;1275;25216;-82
2023/01/24 00:46:09;;;;;;;6.80;4.40;;;;;;;-0.69;89.27;96829.29;106664;1275;22525;-82
2023/01/24 00:48:38;;;;;;;6.80;4.20;;;;;;;-0.69;89.62;96824.96;106740;1270;22739;-83
2023/01/24 00:51:06;;;;;;;6.70;4.30;;;;;;;-0.65;89.93;96830.16;106638;1275;22521;-83
2023/01/24 00:53:34;;;;;;;9.80;4.30;;;;;;;-0.65;89.90;96832.23;106707;1275;25374;-82
2023/01/24 00:56:03;;;;;;;5.40;3.60;;;;;;;-0.70;89.55;96827.88;106658;1275;25379;-83
2023/01/24 00:58:33;;;;;;;6.50;4.20;;;;;;;-0.76;89.27;96831.37;106754;1275;24253;-83
2023/01/24 01:01:04;;;;;;;6.70;3.70;;;;;;;-0.77;89.46;96831.68;106675;1275;25497;-83
2023/01/24 01:03:33;;;;;;;6.70;4.20;;;;;;;-0.75;89.70;96831.79;106640;1275;22647;-82
2023/01/24 01:06:04;;;;;;;7.10;4.40;;;;;;;-0.71;89.95;96831.77;106742;1275;22642;-82
2023/01/24 01:08:32;;;;;;;5.50;3.60;;;;;;;-0.71;89.57;96832.14;106710;1275;25271;-82
2023/01/24 01:11:00;;;;;;;6.50;3.90;;;;;;;-0.75;89.39;96831.45;106685;1275;22518;-82
2023/01/24 01:13:30;;;;;;;7.20;3.70;;;;;;;-0.77;89.42;96827.89;106810;1275;24249;-83
2023/01/24 01:16:16;;;;;;;8.30;3.20;;;;;;;-0.80;89.24;96833.13;106877;1275;26586;-82
2023/01/24 01:18:46;;;;;;;7.80;4.00;;;;;;;-0.81;89.55;96831.88;106680;1275;24367;-83
2023/01/24 01:21:17;;;;;;;7.60;3.90;;;;;;;-0.77;89.65;96833.95;106643;1275;24629;-82
2023/01/24 01:23:46;;;;;;;5.30;3.20;;;;;;;-0.77;89.42;96833.07;106628;1275;22646;-82
2023/01/24 01:26:17;;;;;;;5.30;3.20;;;;;;;-0.80;89.12;96831.02;106669;1275;22640;-83
2023/01/24 01:28:46;;;;;;;5.20;3.20;;;;;;;-0.83;89.23;96837.65;106817;1275;25230;-82
2023/01/24 01:31:15;;;;;;;6.00;3.20;;;;;;;-0.88;89.09;96839.34;106756;1275;22597;-83
2023/01/24 01:33:44;;;;;;;6.00;3.10;;;;;;;-0.95;88.81;96841.42;106757;1275;24202;-83
2023/01/24 01:36:12;;;;;;;7.20;3.70;;;;;;;-0.92;89.30;96837.58;106714;1275;22525;-83
2023/01/24 01:38:40;;;;;;;8.40;3.90;;;;;;;-0.89;89.28;96841.55;106791;1275;26060;-83
2023/01/24 01:41:12;;;;;;;5.00;3.20;;;;;;;-0.89;89.29;96842.40;106721;1275;24225;-83
2023/01/24 01:44:37;;;;;;;8.00;4.10;;;;;;;-0.92;89.35;96837.79;106711;1275;22521;-83
2023/01/24 01:46:42;;;;;;;7.30;4.20;;;;;;;-0.93;89.51;96840.83;106699;1275;22575;-83
2023/01/24 01:49:24;;;;;;;6.70;3.80;;;;;;;-1.00;89.03;96842.77;106667;1275;24953;-82
2023/01/24 01:52:03;;;;;;;6.30;3.70;;;;;;;-1.07;89.17;96834.98;106661;1275;25258;-83
2023/01/24 01:54:37;;;;;;;7.60;4.20;;;;;;;-1.10;89.56;96838.31;106668;1275;22518;-83
2023/01/24 01:57:18;;;;;;;6.40;4.20;;;;;;;-1.08;89.54;96837.02;106880;1275;22531;-82
2023/01/24 01:59:53;;;;;;;6.90;4.20;;;;;;;-1.04;89.77;96834.46;106686;1275;22535;-83
2023/01/24 02:02:22;;;;;;;9.20;5.20;;;;;;;-1.03;89.72;96836.05;106707;1275;24196;-83
2023/01/24 02:05:00;;;;;;;11.00;5.70;;;;;;;-1.04;89.68;96836.15;106873;1275;22520;-83
2023/01/24 02:07:57;;;;;;;8.50;5.50;;;;;;;-1.06;89.66;96841.27;106769;1275;22869;-83
2023/01/24 02:11:37;;;;;;;8.30;4.50;;;;;;;-1.14;89.13;96838.31;106730;1275;24368;-83
2023/01/24 02:13:16;;;;;;;7.30;4.30;;;;;;;-1.14;89.53;96841.40;106837;1275;25281;-83
2023/01/24 02:16:05;;;;;;;9.60;5.10;;;;;;;-1.13;89.65;96843.20;106680;1275;24362;-82
2023/01/24 02:18:36;;;;;;;7.20;4.80;;;;;;;-1.14;89.46;96839.67;106810;1275;22531;-83
2023/01/24 02:21:09;;;;;;;7.30;4.60;;;;;;;-1.18;89.08;96839.15;107008;1275;25472;-82
2023/01/24 02:23:40;;;;;;;;;;;;;;;-1.19;89.10;96838.24;107020;1275;22510;-83
2023/01/24 02:26:24;;;;;;;5.60;3.70;;;;;;;-1.23;88.85;96835.99;107073;1275;24303;-83
2023/01/24 02:28:57;;;;;;;8.50;4.60;;;;;;;-1.29;88.84;96831.41;106890;1275;22643;-83
2023/01/24 02:31:26;;;;;;;10.10;4.80;;;;;;;-1.31;89.28;96830.44;106697;1275;25236;-83
2023/01/24 02:33:55;;;;;;;8.00;4.60;;;;;;;-1.35;89.68;96827.69;106682;1275;22525;-83
2023/01/24 02:36:35;;;;;;;9.00;5.30;;;;;;;-1.37;89.70;96831.36;106700;1275;24364;-83
2023/01/24 02:39:10;;;;;;;7.20;4.30;;;;;;;-1.42;89.65;96832.84;106809;1275;22645;-83
2023/01/24 02:42:10;;;;;;;7.00;4.80;;;;;;;-1.48;89.60;96828.08;106808;1275;25468;-83
2023/01/24 02:45:01;;;;;;;10.60;4.60;;;;;;;-1.52;89.34;96826.86;106843;1275;22521;-83
2023/01/24 02:47:35;;;;;;;7.70;4.50;;;;;;;-1.49;89.52;96823.86;106706;1273;22608;-83
2023/01/24 02:50:06;;;;;;;8.40;5.00;;;;;;;-1.47;89.73;96820.18;106608;1275;24249;-83
2023/01/24 02:55:22;;;;;;;9.60;5.50;;;;;;;-1.47;89.67;96819.17;106641;1275;25318;-83
2023/01/24 02:58:06;;;;;;;8.00;4.10;;;;;;;-1.57;89.01;96816.10;106693;1275;25377;-83
2023/01/24 03:00:41;;;;;;;9.00;4.50;;;;;;;-1.63;89.07;96812.02;106762;1275;22644;-83
2023/01/24 03:03:11;;;;;;;6.90;4.70;;;;;;;-1.62;89.71;96811.03;106594;1275;22629;-82
2023/01/24 03:05:46;;;;;;;9.50;5.20;;;;;;;-1.60;90.08;96812.66;106724;1257;22526;-82
2023/01/24 03:08:16;;;;;;;11.80;5.00;;;;;;;-1.59;90.05;96811.16;106810;1275;23663;-82
2023/01/24 03:10:46;;;;;;;10.20;4.70;;;;;;;-1.58;90.08;96811.73;106677;1275;22539;-82
2023/01/24 03:35:34;;;;;;;8.20;4.60;;;;;;;-1.72;89.66;96816.92;106735;1275;24431;-82
2023/01/24 03:40:53;;;;;;;6.70;4.50;;;;;;;-1.71;89.80;96816.48;106677;1275;22519;-82
2023/01/24 03:43:21;;;;;;;7.80;4.30;;;;;;;-1.76;89.64;96821.94;106626;1275;22523;-82
2023/01/24 03:45:53;;;;;;;7.00;4.20;;;;;;;-1.82;89.49;96819.38;106604;1275;24346;-82
2023/01/24 03:48:36;;;;;;;7.30;4.70;;;;;;;-1.86;89.84;96819.19;106623;1275;24491;-82
2023/01/24 03:53:52;;;;;;;8.50;5.00;;;;;;;-1.89;90.22;96817.65;106705;1275;22524;-82
2023/01/24 03:56:24;;;;;;;6.40;3.90;;;;;;;-1.90;90.11;96814.52;106644;1263;24053;-82
2023/01/24 03:58:56;;;;;;;6.80;4.10;;;;;;;-1.88;90.03;96817.02;106576;1275;25439;-82
2023/01/24 04:01:25;;;;;;;8.20;3.90;;;;;;;-1.87;90.17;96814.67;106649;1275;25360;-83
2023/01/24 04:03:58;;;;;;;8.30;3.80;;;;;;;-1.88;90.06;96811.68;106675;1275;25395;-82
2023/01/24 04:06:27;;;;;;;8.00;3.90;;;;;;;-1.89;90.09;96808.17;106661;1275;24575;-82
2023/01/24 04:08:55;;;;;;;9.90;4.20;;;;;;;-1.89;90.21;96810.39;106642;1275;22531;-83
2023/01/24 04:11:25;;;;;;;6.70;3.90;;;;;;;-1.90;89.98;96802.80;106693;1275;22958;-82
2023/01/24 04:14:01;;;;;;;5.50;3.40;;;;;;;-1.91;90.00;96798.27;106557;1275;24482;-82
2023/01/24 04:16:30;;;;;;;7.50;4.30;;;;;;;-1.87;90.18;96798.93;106726;1275;25606;-82
2023/01/24 04:19:14;;;;;;;12.70;6.10;;;;;;;-1.87;90.08;96800.34;106758;1275;24204;-82
2023/01/24 04:21:43;;;;;;;14.80;6.90;;;;;;;-1.90;89.94;96801.39;106729;1275;24089;-83
2023/01/24 04:24:12;;;;;;;8.90;4.40;;;;;;;-1.92;89.93;96802.66;106643;1275;25386;-82
2023/01/24 04:26:42;;;;;;;5.40;3.50;;;;;;;-1.98;89.82;96804.28;106742;1275;24367;-82
2023/01/24 04:29:15;;;;;;;6.90;3.20;;;;;;;-1.99;90.02;96805.13;106724;1275;22489;-82
2023/01/24 04:31:43;;;;;;;10.80;4.50;;;;;;;-1.98;90.02;96808.42;106594;1275;22530;-82
2023/01/24 04:34:35;;;;;;;6.40;3.00;;;;;;;-2.01;89.61;96811.54;106573;1275;22784;-82
2023/01/24 04:37:04;;;;;;;5.10;3.20;;;;;;;-2.03;89.66;96810.42;106736;1275;22651;-83
2023/01/24 04:39:33;;;;;;;7.50;4.00;;;;;;;-2.08;89.43;96812.73;106811;1275;22527;-82
2023/01/24 04:42:12;;;;;;;6.60;3.90;;;;;;;-2.10;89.50;96814.21;106945;1275;22517;-83
2023/01/24 04:44:41;;;;;;;6.60;3.30;;;;;;;-2.11;89.70;96817.09;106566;1275;25609;-82
2023/01/24 04:47:10;;;;;;;5.10;2.70;;;;;;;-2.08;89.77;96816.71;106684;1263;22531;-83
2023/01/24 04:49:41;;;;;;;5.30;3.40;;;;;;;-2.08;89.69;96818.45;106657;1275;22515;-82
2023/01/24 04:52:13;;;;;;;5.10;2.80;;;;;;;-2.09;89.70;96820.15;107075;1275;24247;-82
2023/01/24 04:54:51;;;;;;;6.10;2.70;;;;;;;-2.08;89.81;96818.30;106994;1275;24334;-83
2023/01/24 04:57:20;;;;;;;6.20;3.10;;;;;;;-2.09;89.67;96820.63;106599;1275;25389;-82
2023/01/24 04:59:48;;;;;;;7.10;2.90;;;;;;;-2.09;89.98;96822.55;106725;1275;22779;-82
2023/01/24 05:02:18;;;;;;;6.90;3.70;;;;;;;-2.17;89.28;96826.64;106649;1275;22518;-82
2023/01/24 05:04:47;;;;;;;6.80;3.40;;;;;;;-2.20;89.71;96820.97;106812;1275;24134;-83
2023/01/24 05:07:16;;;;;;;6.40;3.20;;;;;;;-2.24;89.72;96817.66;106600;1275;22558;-82
2023/01/24 05:09:49;;;;;;;6.10;3.20;;;;;;;-2.22;90.01;96819.66;106615;1275;25224;-83
2023/01/24 05:12:18;;;;;;;5.50;3.60;;;;;;;-2.19;90.20;96827.08;106718;1275;22520;-83
2023/01/24 05:14:46;;;;;;;7.20;4.40;;;;;;;-2.22;90.02;96826.57;106805;1275;22973;-82
2023/01/24 05:17:14;;;;;;;7.00;3.80;;;;;;;-2.26;89.72;96827.22;106677;1254;22649;-82
2023/01/24 05:19:43;;;;;;;7.20;4.00;;;;;;;-2.27;89.87;96825.11;106547;1275;25321;-83
2023/01/24 05:22:14;;;;;;;4.40;2.90;;;;;;;-2.26;89.84;96829.98;106792;1275;22517;-82
2023/01/24 05:24:43;;;;;;;4.70;2.60;;;;;;;-2.27;89.68;96832.35;106771;1275;22559;-82
2023/01/24 05:27:11;;;;;;;5.60;3.00;;;;;;;-2.26;89.64;96835.84;106592;1275;22536;-83
2023/01/24 05:29:41;;;;;;;4.70;2.70;;;;;;;-2.26;89.66;96836.49;106697;1275;24466;-83
2023/01/24 05:32:10;;;;;;;5.30;2.70;;;;;;;-2.25;89.52;96839.84;106712;1275;24525;-83
2023/01/24 05:34:38;;;;;;;6.90;3.50;;;;;;;-2.25;89.72;96838.27;106761;1275;22550;-83
2023/01/24 05:37:07;;;;;;;8.30;3.80;;;;;;;-2.30;89.30;96841.34;106779;1275;24249;-83
2023/01/24 05:39:36;;;;;;;5.30;3.60;;;;;;;-2.29;89.51;96844.63;106793;1275;22781;-82
2023/01/24 05:42:04;;;;;;;8.00;4.10;;;;;;;-2.27;89.96;96851.27;106606;1275;23132;-83
2023/01/24 05:44:39;;;;;;;6.40;2.90;;;;;;;-2.31;89.81;96846.23;106685;1275;24563;-83
2023/01/24 05:47:07;;;;;;;4.60;2.80;;;;;;;-2.31;89.83;96845.23;106777;1275;22643;-83
2023/01/24 05:49:38;;;;;;;4.40;2.20;;;;;;;-2.29;89.92;96846.52;106657;1275;22529;-82
2023/01/24 05:52:06;;;;;;;3.00;2.10;;;;;;;-2.26;90.07;96848.23;106661;1275;22534;-82
2023/01/24 05:54:45;;;;;;;6.80;3.70;;;;;;;-2.33;89.51;96848.92;106782;1275;24233;-82
2023/01/24 05:57:24;;;;;;;3.60;2.40;;;;;;;-2.41;89.26;96847.33;106716;1275;26641;-83
2023/01/24 06:00:11;;;;;;;6.30;2.90;;;;;;;-2.38;89.92;96853.16;106641;1275;25331;-83
2023/01/24 06:02:45;;;;;;;5.60;2.90;;;;;;;-2.34;90.11;96856.77;106724;1261;22877;-83
2023/01/24 06:05:13;;;;;;;5.40;2.70;;;;;;;-2.34;90.24;96865.77;106607;1275;25437;-83
2023/01/24 06:07:42;;;;;;;2.70;2.20;;;;;;;-2.36;89.94;96861.48;106700;1275;22795;-83
2023/01/24 06:10:11;;;;;;;3.00;2.20;;;;;;;-2.36;90.07;96864.29;107057;1275;22789;-83
2023/01/24 06:12:47;;;;;;;4.90;2.40;;;;;;;-2.33;90.03;96864.06;106982;1275;24225;-83
2023/01/24 06:15:16;;;;;;;3.20;2.00;;;;;;;-2.30;90.04;96864.57;106799;1275;22926;-82
2023/01/24 06:17:44;;;;;;;5.50;2.20;;;;;;;-2.28;90.05;96864.67;107006;1275;22527;-83
2023/01/24 06:20:13;;;;;;;15.90;7.80;;;;;;;-2.29;90.14;96869.96;106757;1275;24497;-82
2023/01/24 06:22:51;;;;;;;20.00;8.90;;;;;;;-2.34;89.66;96872.27;106657;1275;24290;-82
2023/01/24 06:25:24;;;;;;;10.10;5.30;;;;;;;-2.42;89.51;96872.44;106755;1275;22543;-83
2023/01/24 06:27:53;;;;;;;4.80;2.80;;;;;;;-2.40;89.87;96877.67;106698;1275;22523;-83
2023/01/24 06:30:22;;;;;;;3.20;2.10;;;;;;;-2.35;90.05;96877.41;106703;1275;25323;-83
